sensor_id;sensor_type;location;lat;lon;timestamp;temperature;humidity
5128;DHT22;2582;48.770;9.190;2023-03-14T00:01:10;11.70;99.90
5128;DHT22;2582;48.770;9.190;2023-03-14T00:03:35;11.60;99.90
5128;DHT22;2582;48.770;9.190;2023-03-14T00:06:02;11.50;99.90
5128;DHT22;2582;48.770;9.190;2023-03-14T00:08:28;11.50;99.90
5128;DHT22;2582;48.770;9.190;2023-03-14T00:10:54;11.60;99.90
5128;DHT22;2582;48.770;9.190;2023-03-14T00:13:19;11.50;99.90
5128;DHT22;2582;48.770;9.190;2023-03-14T00:15:45;11.50;99.90
5128;DHT22;2582;48.770;9.190;2023-03-14T00:18:10;11.40;99.90
5128;DHT22;2582;48.770;9.190;2023-03-14T00:20:36;11.50;99.90
5128;DHT22;2582;48.770;9.190;2023-03-14T00:23:01;11.40;99.90
5128;DHT22;2582;48.770;9.190;2023-03-14T00:25:27;11.50;99.90
5128;DHT22;2582;48.770;9.190;2023-03-14T00:27:53;11.60;99.90
5128;DHT22;2582;48.770;9.190;2023-03-14T00:30:19;11.50;99.90
5128;DHT22;2582;48.770;9.190;2023-03-14T00:32:44;11.50;99.90
5128;DHT22;2582;48.770;9.190;2023-03-14T00:35:10;11.40;99.90
5128;DHT22;2582;48.770;9.190;2023-03-14T00:37:36;11.50;99.90
5128;DHT22;2582;48.770;9.190;2023-03-14T00:40:01;11.40;99.90
5128;DHT22;2582;48.770;9.190;2023-03-14T00:42:27;11.50;99.90
5128;DHT22;2582;48.770;9.190;2023-03-14T00:44:52;11.50;99.90
5128;DHT22;2582;48.770;9.190;2023-03-14T00:47:18;11.50;99.90
5128;DHT22;2582;48.770;9.190;2023-03-14T00:49:44;11.50;99.90
5128;DHT22;2582;48.770;9.190;2023-03-14T00:52:09;11.50;99.90
5128;DHT22;2582;48.770;9.190;2023-03-14T00:54:35;11.70;99.90
5128;DHT22;2582;48.770;9.190;2023-03-14T00:57:00;11.80;99.90
5128;DHT22;2582;48.770;9.190;2023-03-14T00:59:27;11.70;99.90
5128;DHT22;2582;48.770;9.190;2023-03-14T01:01:52;11.80;99.90
5128;DHT22;2582;48.770;9.190;2023-03-14T01:04:18;11.70;99.90
5128;DHT22;2582;48.770;9.190;2023-03-14T01:06:43;11.80;99.90
5128;DHT22;2582;48.770;9.190;2023-03-14T01:09:09;12.00;99.90
5128;DHT22;2582;48.770;9.190;2023-03-14T01:11:35;12.10;99.90
5128;DHT22;2582;48.770;9.190;2023-03-14T01:14:02;12.20;99.90
5128;DHT22;2582;48.770;9.190;2023-03-14T01:16:30;12.00;99.90
5128;DHT22;2582;48.770;9.190;2023-03-14T01:18:55;12.00;99.90
5128;DHT22;2582;48.770;9.190;2023-03-14T01:21:23;12.10;99.90
5128;DHT22;2582;48.770;9.190;2023-03-14T01:23:49;12.20;99.90
5128;DHT22;2582;48.770;9.190;2023-03-14T01:26:18;12.20;99.90
5128;DHT22;2582;48.770;9.190;2023-03-14T01:28:45;12.20;99.90
5128;DHT22;2582;48.770;9.190;2023-03-14T01:31:10;12.20;99.90
5128;DHT22;2582;48.770;9.190;2023-03-14T01:33:36;12.30;99.90
5128;DHT22;2582;48.770;9.190;2023-03-14T01:36:02;12.50;99.90
5128;DHT22;2582;48.770;9.190;2023-03-14T01:38:29;12.50;99.90
5128;DHT22;2582;48.770;9.190;2023-03-14T01:40:55;12.50;99.90
5128;DHT22;2582;48.770;9.190;2023-03-14T01:43:21;12.30;99.90
5128;DHT22;2582;48.770;9.190;2023-03-14T01:49:07;12.40;99.90
5128;DHT22;2582;48.770;9.190;2023-03-14T01:54:19;12.20;99.90
5128;DHT22;2582;48.770;9.190;2023-03-14T01:57:08;12.10;99.90
5128;DHT22;2582;48.770;9.190;2023-03-14T01:59:36;11.90;99.90
5128;DHT22;2582;48.770;9.190;2023-03-14T02:02:04;11.70;99.90
5128;DHT22;2582;48.770;9.190;2023-03-14T02:04:34;11.70;99.90
5128;DHT22;2582;48.770;9.190;2023-03-14T02:07:12;11.90;99.90
5128;DHT22;2582;48.770;9.190;2023-03-14T02:09:39;11.80;99.90
5128;DHT22;2582;48.770;9.190;2023-03-14T02:12:07;11.80;99.90
5128;DHT22;2582;48.770;9.190;2023-03-14T02:14:35;11.80;99.90
5128;DHT22;2582;48.770;9.190;2023-03-14T02:17:02;11.80;99.90
5128;DHT22;2582;48.770;9.190;2023-03-14T02:20:03;11.60;99.90
5128;DHT22;2582;48.770;9.190;2023-03-14T02:22:31;11.70;99.90
5128;DHT22;2582;48.770;9.190;2023-03-14T02:25:08;11.70;99.90
5128;DHT22;2582;48.770;9.190;2023-03-14T02:27:34;12.00;99.90
5128;DHT22;2582;48.770;9.190;2023-03-14T02:30:33;12.10;99.90
5128;DHT22;2582;48.770;9.190;2023-03-14T02:33:03;12.10;99.90
5128;DHT22;2582;48.770;9.190;2023-03-14T02:35:37;12.00;99.90
5128;DHT22;2582;48.770;9.190;2023-03-14T02:38:13;11.90;99.90
5128;DHT22;2582;48.770;9.190;2023-03-14T02:40:40;11.70;99.90
5128;DHT22;2582;48.770;9.190;2023-03-14T02:43:05;11.70;99.90
5128;DHT22;2582;48.770;9.190;2023-03-14T02:45:41;11.60;99.90
5128;DHT22;2582;48.770;9.190;2023-03-14T02:48:13;11.50;99.90
5128;DHT22;2582;48.770;9.190;2023-03-14T02:50:39;11.40;99.90
5128;DHT22;2582;48.770;9.190;2023-03-14T02:53:05;11.60;99.90
5128;DHT22;2582;48.770;9.190;2023-03-14T02:55:31;11.60;99.90
5128;DHT22;2582;48.770;9.190;2023-03-14T02:57:56;11.50;99.90
5128;DHT22;2582;48.770;9.190;2023-03-14T03:00:22;11.50;99.90
5128;DHT22;2582;48.770;9.190;2023-03-14T03:02:47;11.40;99.90
5128;DHT22;2582;48.770;9.190;2023-03-14T03:05:13;11.40;99.90
5128;DHT22;2582;48.770;9.190;2023-03-14T03:07:39;11.30;99.90
5128;DHT22;2582;48.770;9.190;2023-03-14T03:10:05;11.40;99.90
5128;DHT22;2582;48.770;9.190;2023-03-14T03:12:30;11.30;99.90
5128;DHT22;2582;48.770;9.190;2023-03-14T03:14:56;11.20;99.90
5128;DHT22;2582;48.770;9.190;2023-03-14T03:17:21;11.30;99.90
5128;DHT22;2582;48.770;9.190;2023-03-14T03:19:47;11.40;99.90
5128;DHT22;2582;48.770;9.190;2023-03-14T03:22:12;11.30;99.90
5128;DHT22;2582;48.770;9.190;2023-03-14T03:24:38;11.30;99.90
5128;DHT22;2582;48.770;9.190;2023-03-14T03:27:03;11.30;99.90
5128;DHT22;2582;48.770;9.190;2023-03-14T03:29:29;11.30;99.90
5128;DHT22;2582;48.770;9.190;2023-03-14T03:31:55;11.20;99.90
5128;DHT22;2582;48.770;9.190;2023-03-14T03:34:21;11.30;99.90
5128;DHT22;2582;48.770;9.190;2023-03-14T03:36:46;11.30;99.90
5128;DHT22;2582;48.770;9.190;2023-03-14T03:39:12;11.30;99.90
5128;DHT22;2582;48.770;9.190;2023-03-14T03:41:37;11.20;99.90
5128;DHT22;2582;48.770;9.190;2023-03-14T03:44:03;11.20;99.90
5128;DHT22;2582;48.770;9.190;2023-03-14T03:46:29;11.20;99.90
5128;DHT22;2582;48.770;9.190;2023-03-14T03:48:59;11.20;99.90
5128;DHT22;2582;48.770;9.190;2023-03-14T03:51:25;11.10;99.90
5128;DHT22;2582;48.770;9.190;2023-03-14T03:53:51;11.10;99.90
5128;DHT22;2582;48.770;9.190;2023-03-14T03:56:17;11.10;99.90
5128;DHT22;2582;48.770;9.190;2023-03-14T03:58:42;11.00;99.90
5128;DHT22;2582;48.770;9.190;2023-03-14T04:01:09;11.10;99.90
5128;DHT22;2582;48.770;9.190;2023-03-14T04:03:35;11.10;99.90
5128;DHT22;2582;48.770;9.190;2023-03-14T04:06:03;11.10;99.90
5128;DHT22;2582;48.770;9.190;2023-03-14T04:08:29;11.00;99.90
5128;DHT22;2582;48.770;9.190;2023-03-14T04:11:00;11.10;99.90
5128;DHT22;2582;48.770;9.190;2023-03-14T04:13:27;11.10;99.90
5128;DHT22;2582;48.770;9.190;2023-03-14T04:15:53;11.10;99.90
5128;DHT22;2582;48.770;9.190;2023-03-14T04:18:20;11.10;99.90
5128;DHT22;2582;48.770;9.190;2023-03-14T04:20:50;11.10;99.90
5128;DHT22;2582;48.770;9.190;2023-03-14T04:23:15;10.90;99.90
5128;DHT22;2582;48.770;9.190;2023-03-14T04:25:41;11.00;99.90
5128;DHT22;2582;48.770;9.190;2023-03-14T04:28:06;11.10;99.90
5128;DHT22;2582;48.770;9.190;2023-03-14T04:30:32;11.20;99.90
5128;DHT22;2582;48.770;9.190;2023-03-14T04:32:57;11.10;99.90
5128;DHT22;2582;48.770;9.190;2023-03-14T04:35:23;11.00;99.90
5128;DHT22;2582;48.770;9.190;2023-03-14T04:37:48;11.00;99.90
5128;DHT22;2582;48.770;9.190;2023-03-14T04:40:15;11.10;99.90
5128;DHT22;2582;48.770;9.190;2023-03-14T04:42:40;11.00;99.90
5128;DHT22;2582;48.770;9.190;2023-03-14T04:45:07;11.00;99.90
5128;DHT22;2582;48.770;9.190;2023-03-14T04:47:33;10.90;99.90
5128;DHT22;2582;48.770;9.190;2023-03-14T04:49:59;10.90;99.90
5128;DHT22;2582;48.770;9.190;2023-03-14T04:52:24;10.90;99.90
5128;DHT22;2582;48.770;9.190;2023-03-14T04:54:50;10.90;99.90
5128;DHT22;2582;48.770;9.190;2023-03-14T04:57:16;11.00;99.90
5128;DHT22;2582;48.770;9.190;2023-03-14T04:59:41;11.10;99.90
5128;DHT22;2582;48.770;9.190;2023-03-14T05:02:07;11.10;99.90
5128;DHT22;2582;48.770;9.190;2023-03-14T05:04:32;11.10;99.90
5128;DHT22;2582;48.770;9.190;2023-03-14T05:06:59;11.10;99.90
5128;DHT22;2582;48.770;9.190;2023-03-14T05:09:25;11.20;99.90
5128;DHT22;2582;48.770;9.190;2023-03-14T05:11:50;11.10;99.90
5128;DHT22;2582;48.770;9.190;2023-03-14T05:14:16;11.00;99.90
5128;DHT22;2582;48.770;9.190;2023-03-14T05:16:42;10.90;99.90
5128;DHT22;2582;48.770;9.190;2023-03-14T05:19:07;10.90;99.90
5128;DHT22;2582;48.770;9.190;2023-03-14T05:21:33;10.90;99.90
5128;DHT22;2582;48.770;9.190;2023-03-14T05:23:59;10.90;99.90
5128;DHT22;2582;48.770;9.190;2023-03-14T05:26:24;11.00;99.90
5128;DHT22;2582;48.770;9.190;2023-03-14T05:28:50;10.90;99.90
5128;DHT22;2582;48.770;9.190;2023-03-14T05:31:15;10.90;99.90
5128;DHT22;2582;48.770;9.190;2023-03-14T05:33:41;10.80;99.90
5128;DHT22;2582;48.770;9.190;2023-03-14T05:36:07;10.70;99.90
5128;DHT22;2582;48.770;9.190;2023-03-14T05:38:33;10.90;99.90
5128;DHT22;2582;48.770;9.190;2023-03-14T05:40:58;10.90;99.90
5128;DHT22;2582;48.770;9.190;2023-03-14T05:43:24;11.10;99.90
5128;DHT22;2582;48.770;9.190;2023-03-14T05:45:49;11.20;99.90
5128;DHT22;2582;48.770;9.190;2023-03-14T05:48:15;11.00;99.90
5128;DHT22;2582;48.770;9.190;2023-03-14T05:50:42;11.10;99.90
5128;DHT22;2582;48.770;9.190;2023-03-14T05:53:08;11.10;99.90
5128;DHT22;2582;48.770;9.190;2023-03-14T05:55:33;11.10;99.90
5128;DHT22;2582;48.770;9.190;2023-03-14T05:57:59;11.00;99.90
5128;DHT22;2582;48.770;9.190;2023-03-14T06:00:24;11.00;99.90
5128;DHT22;2582;48.770;9.190;2023-03-14T06:02:50;11.00;99.90
5128;DHT22;2582;48.770;9.190;2023-03-14T06:05:15;11.10;99.90
5128;DHT22;2582;48.770;9.190;2023-03-14T06:07:41;11.10;99.90
5128;DHT22;2582;48.770;9.190;2023-03-14T06:10:07;11.10;99.90
5128;DHT22;2582;48.770;9.190;2023-03-14T06:12:33;11.10;99.90
5128;DHT22;2582;48.770;9.190;2023-03-14T06:14:58;11.00;99.90
5128;DHT22;2582;48.770;9.190;2023-03-14T06:17:24;11.10;99.90
5128;DHT22;2582;48.770;9.190;2023-03-14T06:19:49;10.90;99.90
5128;DHT22;2582;48.770;9.190;2023-03-14T06:22:15;11.00;99.90
5128;DHT22;2582;48.770;9.190;2023-03-14T06:24:41;11.20;99.90
5128;DHT22;2582;48.770;9.190;2023-03-14T06:27:06;11.10;99.90
5128;DHT22;2582;48.770;9.190;2023-03-14T06:29:32;11.10;99.90
5128;DHT22;2582;48.770;9.190;2023-03-14T06:31:58;11.10;99.90
5128;DHT22;2582;48.770;9.190;2023-03-14T06:34:23;11.20;99.90
5128;DHT22;2582;48.770;9.190;2023-03-14T06:36:49;11.20;99.90
5128;DHT22;2582;48.770;9.190;2023-03-14T06:39:14;11.20;99.90
5128;DHT22;2582;48.770;9.190;2023-03-14T06:41:40;11.10;99.90
5128;DHT22;2582;48.770;9.190;2023-03-14T06:44:05;11.20;99.90
5128;DHT22;2582;48.770;9.190;2023-03-14T06:46:31;11.30;99.90
5128;DHT22;2582;48.770;9.190;2023-03-14T06:48:57;11.40;99.90
5128;DHT22;2582;48.770;9.190;2023-03-14T06:51:22;11.40;99.90
5128;DHT22;2582;48.770;9.190;2023-03-14T06:53:48;11.50;99.90
5128;DHT22;2582;48.770;9.190;2023-03-14T06:56:13;11.40;99.90
5128;DHT22;2582;48.770;9.190;2023-03-14T06:58:39;11.50;99.90
5128;DHT22;2582;48.770;9.190;2023-03-14T07:01:05;11.50;99.90
5128;DHT22;2582;48.770;9.190;2023-03-14T07:03:32;11.40;99.90
5128;DHT22;2582;48.770;9.190;2023-03-14T07:05:58;11.50;99.90
5128;DHT22;2582;48.770;9.190;2023-03-14T07:08:23;11.60;99.90
5128;DHT22;2582;48.770;9.190;2023-03-14T07:10:49;11.70;99.90
5128;DHT22;2582;48.770;9.190;2023-03-14T07:13:14;11.70;99.90
5128;DHT22;2582;48.770;9.190;2023-03-14T07:15:40;11.80;99.90
5128;DHT22;2582;48.770;9.190;2023-03-14T07:18:05;11.90;99.90
5128;DHT22;2582;48.770;9.190;2023-03-14T07:20:31;11.70;99.90
5128;DHT22;2582;48.770;9.190;2023-03-14T07:22:57;11.70;99.90
5128;DHT22;2582;48.770;9.190;2023-03-14T07:25:25;11.90;99.90
5128;DHT22;2582;48.770;9.190;2023-03-14T07:27:51;12.10;99.90
5128;DHT22;2582;48.770;9.190;2023-03-14T07:30:17;12.10;99.90
5128;DHT22;2582;48.770;9.190;2023-03-14T07:32:42;12.00;99.90
5128;DHT22;2582;48.770;9.190;2023-03-14T07:35:08;12.10;99.90
5128;DHT22;2582;48.770;9.190;2023-03-14T07:37:34;12.00;99.90
5128;DHT22;2582;48.770;9.190;2023-03-14T07:40:00;12.00;99.90
5128;DHT22;2582;48.770;9.190;2023-03-14T07:42:25;12.10;99.90
5128;DHT22;2582;48.770;9.190;2023-03-14T07:44:51;12.30;99.90
5128;DHT22;2582;48.770;9.190;2023-03-14T07:47:16;12.50;99.90
5128;DHT22;2582;48.770;9.190;2023-03-14T07:49:42;12.70;99.90
5128;DHT22;2582;48.770;9.190;2023-03-14T07:52:07;12.70;99.90
5128;DHT22;2582;48.770;9.190;2023-03-14T07:54:33;12.60;99.90
5128;DHT22;2582;48.770;9.190;2023-03-14T07:56:58;12.60;99.90
5128;DHT22;2582;48.770;9.190;2023-03-14T07:59:26;12.70;99.90
5128;DHT22;2582;48.770;9.190;2023-03-14T08:01:52;12.70;99.90
5128;DHT22;2582;48.770;9.190;2023-03-14T08:04:18;12.60;99.90
5128;DHT22;2582;48.770;9.190;2023-03-14T08:06:43;12.60;99.90
5128;DHT22;2582;48.770;9.190;2023-03-14T08:09:09;12.50;99.90
5128;DHT22;2582;48.770;9.190;2023-03-14T08:11:35;12.70;99.90
5128;DHT22;2582;48.770;9.190;2023-03-14T08:14:00;12.70;99.90
5128;DHT22;2582;48.770;9.190;2023-03-14T08:16:26;12.90;99.90
5128;DHT22;2582;48.770;9.190;2023-03-14T08:18:51;13.00;99.90
5128;DHT22;2582;48.770;9.190;2023-03-14T08:21:17;13.10;99.90
5128;DHT22;2582;48.770;9.190;2023-03-14T08:23:42;13.10;99.90
5128;DHT22;2582;48.770;9.190;2023-03-14T08:26:08;13.00;99.90
5128;DHT22;2582;48.770;9.190;2023-03-14T08:28:33;13.10;99.90
5128;DHT22;2582;48.770;9.190;2023-03-14T08:31:00;13.10;99.90
5128;DHT22;2582;48.770;9.190;2023-03-14T08:33:27;13.20;99.90
5128;DHT22;2582;48.770;9.190;2023-03-14T08:35:55;13.50;99.90
5128;DHT22;2582;48.770;9.190;2023-03-14T08:38:21;13.70;99.90
5128;DHT22;2582;48.770;9.190;2023-03-14T08:40:46;13.90;99.90
5128;DHT22;2582;48.770;9.190;2023-03-14T08:43:12;14.20;99.90
5128;DHT22;2582;48.770;9.190;2023-03-14T08:45:38;14.20;99.90
5128;DHT22;2582;48.770;9.190;2023-03-14T08:48:03;14.20;99.90
5128;DHT22;2582;48.770;9.190;2023-03-14T08:50:29;13.90;99.90
5128;DHT22;2582;48.770;9.190;2023-03-14T08:52:55;13.70;99.90
5128;DHT22;2582;48.770;9.190;2023-03-14T08:55:20;13.60;99.90
5128;DHT22;2582;48.770;9.190;2023-03-14T08:57:46;13.40;99.90
5128;DHT22;2582;48.770;9.190;2023-03-14T09:00:12;13.60;99.90
5128;DHT22;2582;48.770;9.190;2023-03-14T09:02:40;13.60;99.90
5128;DHT22;2582;48.770;9.190;2023-03-14T09:05:06;13.70;99.90
5128;DHT22;2582;48.770;9.190;2023-03-14T09:07:32;14.00;99.90
5128;DHT22;2582;48.770;9.190;2023-03-14T09:09:58;14.00;99.90
5128;DHT22;2582;48.770;9.190;2023-03-14T09:12:24;14.00;99.90
5128;DHT22;2582;48.770;9.190;2023-03-14T09:14:49;13.90;99.90
5128;DHT22;2582;48.770;9.190;2023-03-14T09:17:15;13.80;99.90
5128;DHT22;2582;48.770;9.190;2023-03-14T09:19:40;13.90;99.90
5128;DHT22;2582;48.770;9.190;2023-03-14T09:22:06;14.30;99.90
5128;DHT22;2582;48.770;9.190;2023-03-14T09:24:31;14.40;99.90
5128;DHT22;2582;48.770;9.190;2023-03-14T09:26:57;14.30;99.90
5128;DHT22;2582;48.770;9.190;2023-03-14T09:29:24;14.20;99.90
5128;DHT22;2582;48.770;9.190;2023-03-14T09:31:50;14.20;99.90
5128;DHT22;2582;48.770;9.190;2023-03-14T09:34:15;14.50;99.90
5128;DHT22;2582;48.770;9.190;2023-03-14T09:36:41;14.50;99.90
5128;DHT22;2582;48.770;9.190;2023-03-14T09:39:09;14.70;99.90
5128;DHT22;2582;48.770;9.190;2023-03-14T09:41:38;14.30;99.90
5128;DHT22;2582;48.770;9.190;2023-03-14T09:44:18;14.20;99.90
5128;DHT22;2582;48.770;9.190;2023-03-14T09:46:48;14.20;99.90
5128;DHT22;2582;48.770;9.190;2023-03-14T09:49:28;14.10;99.90
5128;DHT22;2582;48.770;9.190;2023-03-14T09:51:56;14.00;99.90
5128;DHT22;2582;48.770;9.190;2023-03-14T09:54:39;14.20;99.90
5128;DHT22;2582;48.770;9.190;2023-03-14T09:57:12;14.20;99.90
5128;DHT22;2582;48.770;9.190;2023-03-14T09:59:39;14.00;99.90
5128;DHT22;2582;48.770;9.190;2023-03-14T10:02:27;14.20;99.90
5128;DHT22;2582;48.770;9.190;2023-03-14T10:04:54;13.90;99.90
5128;DHT22;2582;48.770;9.190;2023-03-14T10:07:31;14.00;99.90
5128;DHT22;2582;48.770;9.190;2023-03-14T10:09:57;14.00;99.90
5128;DHT22;2582;48.770;9.190;2023-03-14T10:12:34;14.40;99.90
5128;DHT22;2582;48.770;9.190;2023-03-14T10:15:09;14.50;99.90
5128;DHT22;2582;48.770;9.190;2023-03-14T10:17:42;14.30;99.90
5128;DHT22;2582;48.770;9.190;2023-03-14T10:25:48;14.10;99.90
5128;DHT22;2582;48.770;9.190;2023-03-14T10:30:50;14.70;99.90
5128;DHT22;2582;48.770;9.190;2023-03-14T10:33:27;14.50;99.90
5128;DHT22;2582;48.770;9.190;2023-03-14T10:38:31;14.40;99.90
5128;DHT22;2582;48.770;9.190;2023-03-14T10:40:58;14.40;99.90
5128;DHT22;2582;48.770;9.190;2023-03-14T10:43:35;14.50;99.90
5128;DHT22;2582;48.770;9.190;2023-03-14T10:46:21;14.70;99.90
5128;DHT22;2582;48.770;9.190;2023-03-14T10:48:48;14.80;99.90
5128;DHT22;2582;48.770;9.190;2023-03-14T10:53:44;14.80;99.90
5128;DHT22;2582;48.770;9.190;2023-03-14T10:56:21;14.80;99.90
5128;DHT22;2582;48.770;9.190;2023-03-14T10:58:49;14.80;99.90
5128;DHT22;2582;48.770;9.190;2023-03-14T11:07:26;14.50;99.90
5128;DHT22;2582;48.770;9.190;2023-03-14T11:10:16;14.40;99.90
5128;DHT22;2582;48.770;9.190;2023-03-14T11:16:34;13.80;99.90
5128;DHT22;2582;48.770;9.190;2023-03-14T11:19:20;13.90;99.90
5128;DHT22;2582;48.770;9.190;2023-03-14T11:22:01;13.80;99.90
5128;DHT22;2582;48.770;9.190;2023-03-14T11:27:16;13.40;99.90
5128;DHT22;2582;48.770;9.190;2023-03-14T11:29:55;13.20;99.90
5128;DHT22;2582;48.770;9.190;2023-03-14T11:32:36;13.10;99.90
5128;DHT22;2582;48.770;9.190;2023-03-14T11:35:14;13.10;99.90
5128;DHT22;2582;48.770;9.190;2023-03-14T11:37:46;13.20;99.90
5128;DHT22;2582;48.770;9.190;2023-03-14T11:40:21;13.20;99.90
5128;DHT22;2582;48.770;9.190;2023-03-14T11:42:56;13.20;99.90
5128;DHT22;2582;48.770;9.190;2023-03-14T11:45:42;13.40;99.90
5128;DHT22;2582;48.770;9.190;2023-03-14T11:51:17;13.40;99.90
5128;DHT22;2582;48.770;9.190;2023-03-14T11:53:48;13.40;99.90
5128;DHT22;2582;48.770;9.190;2023-03-14T11:59:16;13.40;99.90
5128;DHT22;2582;48.770;9.190;2023-03-14T12:04:43;13.50;99.90
5128;DHT22;2582;48.770;9.190;2023-03-14T12:07:19;13.70;99.90
5128;DHT22;2582;48.770;9.190;2023-03-14T12:09:47;14.10;99.90
5128;DHT22;2582;48.770;9.190;2023-03-14T12:12:18;14.30;99.90
5128;DHT22;2582;48.770;9.190;2023-03-14T12:14:54;14.30;99.90
5128;DHT22;2582;48.770;9.190;2023-03-14T12:22:36;13.40;99.90
5128;DHT22;2582;48.770;9.190;2023-03-14T12:25:23;12.90;99.90
5128;DHT22;2582;48.770;9.190;2023-03-14T12:28:04;12.90;99.90
5128;DHT22;2582;48.770;9.190;2023-03-14T12:30:39;13.30;99.90
5128;DHT22;2582;48.770;9.190;2023-03-14T12:35:45;14.70;99.90
5128;DHT22;2582;48.770;9.190;2023-03-14T12:38:26;14.60;99.90
5128;DHT22;2582;48.770;9.190;2023-03-14T12:41:40;13.90;99.90
5128;DHT22;2582;48.770;9.190;2023-03-14T12:43:46;13.40;99.90
5128;DHT22;2582;48.770;9.190;2023-03-14T12:48:46;13.90;99.90
5128;DHT22;2582;48.770;9.190;2023-03-14T12:51:38;14.50;99.90
5128;DHT22;2582;48.770;9.190;2023-03-14T12:57:18;16.80;96.50
5128;DHT22;2582;48.770;9.190;2023-03-14T12:59:51;16.40;95.10
5128;DHT22;2582;48.770;9.190;2023-03-14T13:02:28;15.30;95.20
5128;DHT22;2582;48.770;9.190;2023-03-14T13:05:11;14.90;97.10
5128;DHT22;2582;48.770;9.190;2023-03-14T13:15:34;14.00;95.00
5128;DHT22;2582;48.770;9.190;2023-03-14T13:18:16;13.50;95.70
5128;DHT22;2582;48.770;9.190;2023-03-14T13:20:46;13.10;95.30
5128;DHT22;2582;48.770;9.190;2023-03-14T13:23:56;13.40;96.10
5128;DHT22;2582;48.770;9.190;2023-03-14T13:26:24;14.30;94.30
5128;DHT22;2582;48.770;9.190;2023-03-14T13:28:50;14.20;92.60
5128;DHT22;2582;48.770;9.190;2023-03-14T13:31:26;14.20;92.80
5128;DHT22;2582;48.770;9.190;2023-03-14T13:34:05;14.00;94.40
5128;DHT22;2582;48.770;9.190;2023-03-14T13:36:31;14.10;93.50
5128;DHT22;2582;48.770;9.190;2023-03-14T13:38:59;13.70;92.00
5128;DHT22;2582;48.770;9.190;2023-03-14T13:41:27;13.40;92.30
5128;DHT22;2582;48.770;9.190;2023-03-14T13:43:59;13.50;93.00
5128;DHT22;2582;48.770;9.190;2023-03-14T13:46:26;13.20;92.70
5128;DHT22;2582;48.770;9.190;2023-03-14T13:48:57;12.90;92.90
5128;DHT22;2582;48.770;9.190;2023-03-14T13:51:23;13.10;93.70
5128;DHT22;2582;48.770;9.190;2023-03-14T13:53:52;12.80;92.50
5128;DHT22;2582;48.770;9.190;2023-03-14T13:56:23;12.80;93.90
5128;DHT22;2582;48.770;9.190;2023-03-14T13:58:49;12.90;93.90
5128;DHT22;2582;48.770;9.190;2023-03-14T14:01:35;13.20;93.50
5128;DHT22;2582;48.770;9.190;2023-03-14T14:04:07;12.90;93.20
5128;DHT22;2582;48.770;9.190;2023-03-14T14:06:47;12.40;91.80
5128;DHT22;2582;48.770;9.190;2023-03-14T14:09:16;12.40;92.20
5128;DHT22;2582;48.770;9.190;2023-03-14T14:11:51;12.40;91.60
5128;DHT22;2582;48.770;9.190;2023-03-14T14:14:40;12.40;90.90
5128;DHT22;2582;48.770;9.190;2023-03-14T14:17:11;11.90;89.00
5128;DHT22;2582;48.770;9.190;2023-03-14T14:19:38;11.70;90.30
5128;DHT22;2582;48.770;9.190;2023-03-14T14:22:05;11.70;90.00
5128;DHT22;2582;48.770;9.190;2023-03-14T14:24:32;11.70;90.30
5128;DHT22;2582;48.770;9.190;2023-03-14T14:27:01;11.70;90.00
5128;DHT22;2582;48.770;9.190;2023-03-14T14:29:29;11.50;90.00
5128;DHT22;2582;48.770;9.190;2023-03-14T14:32:24;11.50;90.20
5128;DHT22;2582;48.770;9.190;2023-03-14T14:34:58;11.20;90.00
5128;DHT22;2582;48.770;9.190;2023-03-14T14:37:29;11.40;90.60
5128;DHT22;2582;48.770;9.190;2023-03-14T14:39:58;11.40;90.20
5128;DHT22;2582;48.770;9.190;2023-03-14T14:42:30;11.00;90.20
5128;DHT22;2582;48.770;9.190;2023-03-14T14:44:59;10.90;91.30
5128;DHT22;2582;48.770;9.190;2023-03-14T14:47:28;11.10;91.90
5128;DHT22;2582;48.770;9.190;2023-03-14T14:49:58;11.10;91.10
5128;DHT22;2582;48.770;9.190;2023-03-14T14:52:44;11.00;91.20
5128;DHT22;2582;48.770;9.190;2023-03-14T14:55:18;11.00;91.20
5128;DHT22;2582;48.770;9.190;2023-03-14T14:57:54;11.00;91.30
5128;DHT22;2582;48.770;9.190;2023-03-14T15:00:26;11.00;91.60
5128;DHT22;2582;48.770;9.190;2023-03-14T15:02:54;11.00;91.10
5128;DHT22;2582;48.770;9.190;2023-03-14T15:05:22;10.80;91.20
5128;DHT22;2582;48.770;9.190;2023-03-14T15:07:49;10.90;91.80
5128;DHT22;2582;48.770;9.190;2023-03-14T15:10:20;11.00;91.60
5128;DHT22;2582;48.770;9.190;2023-03-14T15:12:46;11.00;91.70
5128;DHT22;2582;48.770;9.190;2023-03-14T15:15:15;11.00;91.70
5128;DHT22;2582;48.770;9.190;2023-03-14T15:17:42;11.40;92.30
5128;DHT22;2582;48.770;9.190;2023-03-14T15:20:13;11.50;91.20
5128;DHT22;2582;48.770;9.190;2023-03-14T15:22:40;11.70;90.90
5128;DHT22;2582;48.770;9.190;2023-03-14T15:25:06;13.00;91.00
5128;DHT22;2582;48.770;9.190;2023-03-14T15:27:32;14.20;85.90
5128;DHT22;2582;48.770;9.190;2023-03-14T15:29:58;14.60;84.10
5128;DHT22;2582;48.770;9.190;2023-03-14T15:32:25;14.10;82.50
5128;DHT22;2582;48.770;9.190;2023-03-14T15:34:56;13.50;86.00
5128;DHT22;2582;48.770;9.190;2023-03-14T15:37:21;13.30;86.60
5128;DHT22;2582;48.770;9.190;2023-03-14T15:39:47;12.70;87.20
5128;DHT22;2582;48.770;9.190;2023-03-14T15:42:13;12.70;87.50
5128;DHT22;2582;48.770;9.190;2023-03-14T15:44:38;12.90;87.10
5128;DHT22;2582;48.770;9.190;2023-03-14T15:47:04;12.90;86.80
5128;DHT22;2582;48.770;9.190;2023-03-14T15:49:31;12.80;87.40
5128;DHT22;2582;48.770;9.190;2023-03-14T15:51:57;12.20;89.00
5128;DHT22;2582;48.770;9.190;2023-03-14T15:54:22;12.00;89.70
5128;DHT22;2582;48.770;9.190;2023-03-14T15:56:48;12.00;90.00
5128;DHT22;2582;48.770;9.190;2023-03-14T15:59:13;12.30;89.40
5128;DHT22;2582;48.770;9.190;2023-03-14T16:01:39;12.70;89.10
5128;DHT22;2582;48.770;9.190;2023-03-14T16:04:04;12.80;88.40
5128;DHT22;2582;48.770;9.190;2023-03-14T16:06:30;12.40;89.40
5128;DHT22;2582;48.770;9.190;2023-03-14T16:08:56;11.90;89.90
5128;DHT22;2582;48.770;9.190;2023-03-14T16:11:22;12.00;90.50
5128;DHT22;2582;48.770;9.190;2023-03-14T16:13:47;11.90;90.60
5128;DHT22;2582;48.770;9.190;2023-03-14T16:16:13;11.50;90.80
5128;DHT22;2582;48.770;9.190;2023-03-14T16:18:39;11.60;91.10
5128;DHT22;2582;48.770;9.190;2023-03-14T16:21:15;11.70;91.30
5128;DHT22;2582;48.770;9.190;2023-03-14T16:23:41;11.80;91.60
5128;DHT22;2582;48.770;9.190;2023-03-14T16:26:16;11.60;91.60
5128;DHT22;2582;48.770;9.190;2023-03-14T16:28:42;11.20;92.40
5128;DHT22;2582;48.770;9.190;2023-03-14T16:31:10;11.20;92.90
5128;DHT22;2582;48.770;9.190;2023-03-14T16:33:37;11.30;92.50
5128;DHT22;2582;48.770;9.190;2023-03-14T16:36:05;11.20;92.80
5128;DHT22;2582;48.770;9.190;2023-03-14T16:38:34;11.00;92.80
5128;DHT22;2582;48.770;9.190;2023-03-14T16:41:20;10.90;92.70
5128;DHT22;2582;48.770;9.190;2023-03-14T16:43:47;10.90;93.20
5128;DHT22;2582;48.770;9.190;2023-03-14T16:46:17;11.00;93.60
5128;DHT22;2582;48.770;9.190;2023-03-14T16:48:43;11.00;93.00
5128;DHT22;2582;48.770;9.190;2023-03-14T16:51:09;10.90;93.10
5128;DHT22;2582;48.770;9.190;2023-03-14T16:53:35;11.00;93.40
5128;DHT22;2582;48.770;9.190;2023-03-14T16:56:01;10.80;93.40
5128;DHT22;2582;48.770;9.190;2023-03-14T16:58:27;10.80;93.40
5128;DHT22;2582;48.770;9.190;2023-03-14T17:00:54;10.80;93.60
5128;DHT22;2582;48.770;9.190;2023-03-14T17:03:21;10.60;93.60
5128;DHT22;2582;48.770;9.190;2023-03-14T17:05:49;10.50;94.20
5128;DHT22;2582;48.770;9.190;2023-03-14T17:08:16;10.60;94.30
5128;DHT22;2582;48.770;9.190;2023-03-14T17:10:42;10.60;94.30
5128;DHT22;2582;48.770;9.190;2023-03-14T17:13:08;10.70;94.10